createdAt,value
2023-06-25T00:00:03.727Z,3213.00
2023-06-25T00:01:03.850Z,3202.00
2023-06-25T00:02:03.884Z,3200.00
2023-06-25T00:03:04.112Z,3191.00
2023-06-25T00:04:04.121Z,3192.00
2023-06-25T00:05:04.103Z,3186.00
2023-06-25T00:06:04.167Z,3177.00
2023-06-25T00:07:04.248Z,3171.00
2023-06-25T00:08:04.303Z,3160.00
2023-06-25T00:09:04.357Z,3159.00
2023-06-25T00:10:04.416Z,3152.00
2023-06-25T00:11:04.476Z,3144.00
2023-06-25T00:12:04.536Z,3138.00
2023-06-25T00:13:04.620Z,3133.00
2023-06-25T00:14:04.700Z,3145.00
2023-06-25T00:15:04.731Z,3144.00
2023-06-25T00:16:04.770Z,3146.00
2023-06-25T00:17:04.824Z,3154.00
2023-06-25T00:18:04.965Z,3150.00
2023-06-25T00:19:04.887Z,3150.00
2023-06-25T00:20:04.894Z,3150.00
2023-06-25T00:21:04.920Z,3152.00
2023-06-25T00:22:04.935Z,3155.00
2023-06-25T00:23:07.863Z,3151.00
2023-06-25T00:24:04.947Z,3155.00
2023-06-25T00:25:04.968Z,3152.00
2023-06-25T00:26:04.979Z,3153.00
2023-06-25T00:27:05.002Z,3160.00
2023-06-25T00:28:05.031Z,3172.00
2023-06-25T00:29:05.042Z,3191.00
2023-06-25T00:30:05.059Z,3176.00
2023-06-25T00:31:05.117Z,3182.00
2023-06-25T00:32:05.105Z,3168.00
2023-06-25T00:33:05.162Z,3172.00
2023-06-25T00:34:05.131Z,3172.00
2023-06-25T00:35:05.140Z,3174.00
2023-06-25T00:36:05.168Z,3197.00
2023-06-25T00:37:05.201Z,3191.00
2023-06-25T00:38:05.216Z,3190.00
2023-06-25T00:39:05.241Z,3199.00
2023-06-25T00:40:05.260Z,3192.00
2023-06-25T00:41:05.284Z,3196.00
2023-06-25T00:42:05.335Z,3199.00
2023-06-25T00:43:05.358Z,3198.00
2023-06-25T00:44:05.425Z,3199.00
2023-06-25T00:45:05.399Z,3189.00
2023-06-25T00:46:05.424Z,3189.00
2023-06-25T00:47:05.446Z,3190.00
2023-06-25T00:48:05.492Z,3192.00
2023-06-25T00:49:05.468Z,3194.00
2023-06-25T00:50:05.491Z,3199.00
2023-06-25T00:51:05.512Z,3211.00
2023-06-25T00:52:05.508Z,3210.00
2023-06-25T00:53:05.538Z,3207.00
2023-06-25T00:54:05.541Z,3202.00
2023-06-25T00:55:05.590Z,3217.00
2023-06-25T00:56:05.582Z,3208.00
2023-06-25T00:57:05.587Z,3212.00
2023-06-25T00:58:05.615Z,3208.00
2023-06-25T00:59:05.625Z,3215.00
2023-06-25T01:00:05.635Z,3216.00
2023-06-25T01:01:05.675Z,3217.00
2023-06-25T01:02:05.670Z,3217.00
2023-06-25T01:03:05.800Z,3216.00
2023-06-25T01:04:05.714Z,3209.00
2023-06-25T01:05:05.726Z,3200.00
2023-06-25T01:06:13.060Z,3205.00
2023-06-25T01:07:06.797Z,3205.00
2023-06-25T01:08:05.771Z,3200.00
2023-06-25T01:09:05.791Z,3203.00
2023-06-25T01:10:05.807Z,3204.00
2023-06-25T01:11:05.844Z,3188.00
2023-06-25T01:12:05.849Z,3184.00
2023-06-25T01:13:05.883Z,3199.00
2023-06-25T01:14:05.892Z,3179.00
2023-06-25T01:15:05.891Z,3198.00
2023-06-25T01:16:05.935Z,3206.00
2023-06-25T01:17:05.939Z,3194.00
2023-06-25T01:18:05.980Z,3190.00
2023-06-25T01:19:06.102Z,3181.00
2023-06-25T01:20:06.000Z,3170.00
2023-06-25T01:21:06.052Z,3171.00
2023-06-25T01:22:06.000Z,3175.00
2023-06-25T01:23:06.016Z,3166.00
2023-06-25T01:24:06.038Z,3152.00
2023-06-25T01:25:06.049Z,3149.00
2023-06-25T01:26:06.083Z,3152.00
2023-06-25T01:27:06.092Z,3146.00
2023-06-25T01:28:06.102Z,3155.00
2023-06-25T01:29:06.153Z,3150.00
2023-06-25T01:30:06.156Z,3143.00
2023-06-25T01:31:06.162Z,3150.00
2023-06-25T01:32:06.241Z,3159.00
2023-06-25T01:33:06.281Z,3159.00
2023-06-25T01:34:06.230Z,3169.00
2023-06-25T01:35:06.248Z,3172.00
2023-06-25T01:36:06.258Z,3151.00
2023-06-25T01:37:06.271Z,3152.00
2023-06-25T01:38:06.303Z,3153.00
2023-06-25T01:39:06.313Z,3147.00
2023-06-25T01:40:06.330Z,3155.00
2023-06-25T01:41:06.344Z,3153.00
2023-06-25T01:42:06.353Z,3164.00
2023-06-25T01:43:06.390Z,3159.00
2023-06-25T01:44:06.390Z,3148.00
2023-06-25T01:45:06.414Z,3146.00
2023-06-25T01:46:06.484Z,3158.00
2023-06-25T01:47:06.440Z,3144.00
2023-06-25T01:48:06.480Z,3149.00
2023-06-25T01:49:08.631Z,3151.00
2023-06-25T01:50:07.545Z,3151.00
2023-06-25T01:51:06.514Z,3153.00
2023-06-25T01:52:06.538Z,3150.00
2023-06-25T01:53:06.564Z,3151.00
2023-06-25T01:54:06.584Z,3140.00
2023-06-25T01:55:06.586Z,3133.00
2023-06-25T01:56:06.629Z,3133.00
2023-06-25T01:57:06.643Z,3130.00
2023-06-25T01:58:06.650Z,3130.00
2023-06-25T01:59:06.656Z,3131.00
2023-06-25T02:00:06.686Z,3124.00
2023-06-25T02:01:06.705Z,3118.00
2023-06-25T02:02:06.723Z,3120.00
2023-06-25T02:03:06.802Z,3104.00
2023-06-25T02:04:06.762Z,3105.00
2023-06-25T02:05:06.786Z,3105.00
2023-06-25T02:06:06.801Z,3099.00
2023-06-25T02:07:06.865Z,3107.00
2023-06-25T02:08:06.834Z,3102.00
2023-06-25T02:09:06.836Z,3096.00
2023-06-25T02:10:06.874Z,3078.00
2023-06-25T02:11:06.874Z,3080.00
2023-06-25T02:12:06.903Z,3073.00
2023-06-25T02:13:06.945Z,3074.00
2023-06-25T02:14:06.961Z,3075.00
2023-06-25T02:15:06.954Z,3078.00
2023-06-25T02:16:07.011Z,3081.00
2023-06-25T02:17:06.984Z,3082.00
2023-06-25T02:18:07.038Z,3110.00
2023-06-25T02:19:07.024Z,3080.00
2023-06-25T02:20:07.042Z,3096.00
2023-06-25T02:21:07.047Z,3093.00
2023-06-25T02:22:07.065Z,3096.00
2023-06-25T02:23:07.111Z,3088.00
2023-06-25T02:24:07.101Z,3083.00
2023-06-25T02:25:07.173Z,3091.00
2023-06-25T02:26:07.144Z,3088.00
2023-06-25T02:27:07.139Z,3081.00
2023-06-25T02:28:07.177Z,3069.00
2023-06-25T02:29:07.176Z,3076.00
2023-06-25T02:30:07.210Z,3071.00
2023-06-25T02:31:07.252Z,3075.00
2023-06-25T02:32:07.250Z,3060.00
2023-06-25T02:33:07.292Z,3068.00
2023-06-25T02:34:07.253Z,3064.00
2023-06-25T02:35:07.294Z,3057.00
2023-06-25T02:36:07.291Z,3052.00
2023-06-25T02:37:07.297Z,3075.00
2023-06-25T02:38:07.328Z,3077.00
2023-06-25T02:39:07.369Z,3068.00
2023-06-25T02:40:07.413Z,3076.00
2023-06-25T02:41:07.465Z,3060.00
2023-06-25T02:42:07.498Z,3060.00
2023-06-25T02:43:07.556Z,3068.00
2023-06-25T02:44:07.571Z,3069.00
2023-06-25T02:45:07.613Z,3050.00
2023-06-25T02:46:07.670Z,3057.00
2023-06-25T02:47:07.809Z,3024.00
2023-06-25T02:48:07.754Z,3027.00
2023-06-25T02:49:07.839Z,3007.00
2023-06-25T02:50:07.858Z,3000.00
2023-06-25T02:51:07.862Z,2995.00
2023-06-25T02:52:07.873Z,2980.00
2023-06-25T02:53:07.897Z,2955.00
2023-06-25T02:54:07.918Z,2938.00
2023-06-25T02:55:07.946Z,2931.00
2023-06-25T02:56:07.953Z,2919.00
2023-06-25T02:57:07.971Z,2907.00
2023-06-25T02:58:07.978Z,2884.00
2023-06-25T02:59:08.015Z,2867.00
2023-06-25T03:00:08.045Z,2865.00
2023-06-25T03:01:08.102Z,2853.00
2023-06-25T03:02:08.128Z,2838.00
2023-06-25T03:03:08.195Z,2827.00
2023-06-25T03:04:08.120Z,2808.00
2023-06-25T03:05:08.129Z,2818.00
2023-06-25T03:06:08.190Z,2807.00
2023-06-25T03:07:08.293Z,2805.00
2023-06-25T03:08:08.342Z,2792.00
2023-06-25T03:09:08.399Z,2780.00
2023-06-25T03:10:08.477Z,2784.00
2023-06-25T03:11:08.544Z,2768.00
2023-06-25T03:12:08.603Z,2779.00
2023-06-25T03:13:08.690Z,2782.00
2023-06-25T03:14:10.323Z,2761.00
2023-06-25T03:15:08.783Z,2753.00
2023-06-25T03:16:08.839Z,2757.00
2023-06-25T03:17:08.823Z,2752.00
2023-06-25T03:18:08.865Z,2761.00
2023-06-25T03:19:08.886Z,2754.00
2023-06-25T03:20:08.909Z,2730.00
2023-06-25T03:21:08.939Z,2739.00
2023-06-25T03:22:08.970Z,2749.00
2023-06-25T03:23:08.995Z,2719.00
2023-06-25T03:24:09.009Z,2726.00
2023-06-25T03:25:09.049Z,2739.00
2023-06-25T03:26:09.073Z,2729.00
2023-06-25T03:27:09.108Z,2730.00
2023-06-25T03:28:09.136Z,2737.00
2023-06-25T03:29:09.139Z,2729.00
2023-06-25T03:30:09.193Z,2738.00
2023-06-25T03:31:09.243Z,2738.00
2023-06-25T03:32:09.245Z,2739.00
2023-06-25T03:33:09.262Z,2719.00
2023-06-25T03:34:09.294Z,2730.00
2023-06-25T03:35:09.318Z,2730.00
2023-06-25T03:36:09.337Z,2728.00
2023-06-25T03:37:09.390Z,2730.00
2023-06-25T03:38:09.388Z,2742.00
2023-06-25T03:39:09.437Z,2723.00
2023-06-25T03:40:09.443Z,2708.00
2023-06-25T03:41:09.455Z,2713.00
2023-06-25T03:42:09.528Z,2731.00
2023-06-25T03:43:09.538Z,2727.00
2023-06-25T03:44:09.541Z,2732.00
2023-06-25T03:45:09.589Z,2718.00
2023-06-25T03:46:09.603Z,2722.00
2023-06-25T03:47:09.660Z,2721.00
2023-06-25T03:48:09.799Z,2708.00
2023-06-25T03:49:09.683Z,2709.00
2023-06-25T03:50:09.716Z,2707.00
2023-06-25T03:51:09.752Z,2695.00
2023-06-25T03:52:09.767Z,2700.00
2023-06-25T03:53:09.809Z,2703.00
2023-06-25T03:54:09.825Z,2683.00
2023-06-25T03:55:09.888Z,2678.00
2023-06-25T03:56:09.916Z,2685.00
2023-06-25T03:57:09.936Z,2680.00
2023-06-25T03:58:10.028Z,2673.00
2023-06-25T03:59:10.115Z,2667.00
2023-06-25T04:00:10.214Z,2681.00
2023-06-25T04:01:10.341Z,2669.00
2023-06-25T04:02:10.555Z,2686.00
2023-06-25T04:03:10.673Z,2665.00
2023-06-25T04:04:10.697Z,2649.00
2023-06-25T04:05:10.701Z,2667.00
2023-06-25T04:06:10.746Z,2654.00
2023-06-25T04:07:10.840Z,2650.00
2023-06-25T04:08:10.904Z,2653.00
2023-06-25T04:09:10.982Z,2658.00
2023-06-25T04:10:11.085Z,2651.00
2023-06-25T04:11:11.147Z,2652.00
2023-06-25T04:12:11.226Z,2657.00
2023-06-25T04:13:11.335Z,2652.00
2023-06-25T04:14:11.360Z,2647.00
2023-06-25T04:15:11.424Z,2660.00
2023-06-25T04:16:11.504Z,2655.00
2023-06-25T04:17:11.609Z,2666.00
2023-06-25T04:18:11.683Z,2697.00
2023-06-25T04:19:11.703Z,2702.00
2023-06-25T04:20:11.782Z,2736.00
2023-06-25T04:21:11.897Z,2744.00
2023-06-25T04:22:11.917Z,2762.00
2023-06-25T04:23:11.998Z,2774.00
2023-06-25T04:24:12.092Z,2784.00
2023-06-25T04:25:12.164Z,2772.00
2023-06-25T04:26:12.198Z,2782.00
2023-06-25T04:27:12.263Z,2774.00
2023-06-25T04:28:12.363Z,2790.00
2023-06-25T04:29:12.396Z,2785.00
2023-06-25T04:30:12.450Z,2781.00
2023-06-25T04:31:12.494Z,2775.00
2023-06-25T04:32:12.637Z,2796.00
2023-06-25T04:33:12.590Z,2783.00
2023-06-25T04:34:12.642Z,2792.00
2023-06-25T04:35:12.672Z,2810.00
2023-06-25T04:36:12.734Z,2796.00
2023-06-25T04:37:12.801Z,2804.00
2023-06-25T04:38:12.846Z,2810.00
2023-06-25T04:39:12.899Z,2814.00
2023-06-25T04:40:12.961Z,2808.00
2023-06-25T04:41:12.999Z,2806.00
2023-06-25T04:42:13.027Z,2825.00
2023-06-25T04:43:13.083Z,2834.00
2023-06-25T04:44:13.119Z,2834.00
2023-06-25T04:45:13.212Z,2845.00
2023-06-25T04:46:13.281Z,2829.00
2023-06-25T04:47:13.265Z,2842.00
2023-06-25T04:48:13.306Z,2837.00
2023-06-25T04:49:13.409Z,2829.00
2023-06-25T04:50:13.406Z,2851.00
2023-06-25T04:51:13.438Z,2836.00
2023-06-25T04:52:13.486Z,2808.00
2023-06-25T04:53:13.524Z,2827.00
2023-06-25T04:54:13.554Z,2835.00
2023-06-25T04:55:13.621Z,2849.00
2023-06-25T04:56:13.640Z,2856.00
2023-06-25T04:57:13.681Z,2875.00
2023-06-25T04:58:13.726Z,2896.00
2023-06-25T04:59:13.754Z,2891.00
2023-06-25T05:00:13.796Z,2906.00
2023-06-25T05:01:13.873Z,2907.00
2023-06-25T05:02:13.888Z,2917.00
2023-06-25T05:03:14.026Z,2915.00
2023-06-25T05:04:13.966Z,2918.00
2023-06-25T05:05:14.003Z,2919.00
2023-06-25T05:06:14.015Z,2919.00
2023-06-25T05:07:14.094Z,2917.00
2023-06-25T05:08:14.109Z,2906.00
2023-06-25T05:09:14.155Z,2909.00
2023-06-25T05:10:14.185Z,2910.00
2023-06-25T05:11:14.184Z,2895.00
2023-06-25T05:12:14.259Z,2881.00
2023-06-25T05:13:14.297Z,2863.00
2023-06-25T05:14:14.318Z,2870.00
2023-06-25T05:15:14.358Z,2858.00
2023-06-25T05:16:14.409Z,2862.00
2023-06-25T05:17:14.441Z,2862.00
2023-06-25T05:18:14.468Z,2853.00
2023-06-25T05:19:14.511Z,2850.00
2023-06-25T05:20:14.507Z,2837.00
2023-06-25T05:21:14.549Z,2828.00
2023-06-25T05:22:14.593Z,2836.00
2023-06-25T05:23:14.644Z,2849.00
2023-06-25T05:24:14.713Z,2850.00
2023-06-25T05:25:14.749Z,2870.00
2023-06-25T05:26:14.791Z,2892.00
2023-06-25T05:27:14.791Z,2902.00
2023-06-25T05:28:14.894Z,2925.00
2023-06-25T05:29:14.863Z,2955.00
2023-06-25T05:30:14.899Z,2959.00
2023-06-25T05:31:14.976Z,2994.00
2023-06-25T05:32:14.970Z,3025.00
2023-06-25T05:33:15.004Z,3052.00
2023-06-25T05:34:15.022Z,3060.00
2023-06-25T05:35:15.069Z,3082.00
2023-06-25T05:36:15.118Z,3090.00
2023-06-25T05:37:15.188Z,3098.00
2023-06-25T05:38:15.229Z,3108.00
2023-06-25T05:39:15.268Z,3118.00
2023-06-25T05:40:15.315Z,3118.00
2023-06-25T05:41:15.369Z,3138.00
2023-06-25T05:42:15.418Z,3144.00
2023-06-25T05:43:15.480Z,3143.00
2023-06-25T05:44:15.522Z,3165.00
2023-06-25T05:45:15.581Z,3169.00
2023-06-25T05:46:15.609Z,3168.00
2023-06-25T05:47:15.759Z,3171.00
2023-06-25T05:48:15.740Z,3172.00
2023-06-25T05:49:15.785Z,3165.00
2023-06-25T05:50:15.843Z,3165.00
2023-06-25T05:51:15.875Z,3173.00
2023-06-25T05:52:15.930Z,3175.00
2023-06-25T05:53:16.002Z,3167.00
2023-06-25T05:54:16.060Z,3177.00
2023-06-25T05:55:16.084Z,3171.00
2023-06-25T05:56:17.348Z,3162.00
2023-06-25T05:57:16.177Z,3146.00
2023-06-25T05:58:16.252Z,3152.00
2023-06-25T05:59:16.296Z,3152.00
2023-06-25T06:00:16.343Z,3159.00
2023-06-25T06:01:16.433Z,3116.00
2023-06-25T06:02:16.426Z,3113.00
2023-06-25T06:03:16.500Z,3110.00
2023-06-25T06:04:18.663Z,3110.00
2023-06-25T06:05:16.536Z,3111.00
2023-06-25T06:06:16.580Z,3109.00
2023-06-25T06:07:16.634Z,3088.00
2023-06-25T06:08:16.844Z,3090.00
2023-06-25T06:09:16.673Z,3083.00
2023-06-25T06:10:16.751Z,3065.00
2023-06-25T06:11:16.746Z,3035.00
2023-06-25T06:12:16.775Z,3026.00
2023-06-25T06:13:16.809Z,3001.00
2023-06-25T06:14:16.832Z,2980.00
2023-06-25T06:15:16.879Z,2966.00
2023-06-25T06:16:16.926Z,2921.00
2023-06-25T06:17:16.928Z,2886.00
2023-06-25T06:18:16.966Z,2863.00
2023-06-25T06:19:16.994Z,2832.00
2023-06-25T06:20:17.035Z,2792.00
2023-06-25T06:21:17.070Z,2772.00
2023-06-25T06:22:17.156Z,2750.00
2023-06-25T06:23:17.143Z,2713.00
2023-06-25T06:24:17.172Z,2682.00
2023-06-25T06:25:17.179Z,2682.00
2023-06-25T06:26:17.213Z,2625.00
2023-06-25T06:27:17.248Z,2588.00
2023-06-25T06:28:17.283Z,2546.00
2023-06-25T06:29:17.313Z,2573.00
2023-06-25T06:30:17.359Z,2569.00
2023-06-25T06:31:17.490Z,2572.00
2023-06-25T06:32:17.360Z,2572.00
2023-06-25T06:33:17.434Z,2561.00
2023-06-25T06:34:17.407Z,2529.00
2023-06-25T06:35:17.450Z,2505.00
2023-06-25T06:36:17.468Z,2474.00
2023-06-25T06:37:17.504Z,2459.00
2023-06-25T06:38:17.551Z,2412.00
2023-06-25T06:39:17.551Z,2386.00
2023-06-25T06:40:17.585Z,2357.00
2023-06-25T06:41:17.614Z,2330.00
2023-06-25T06:42:17.653Z,2312.00
2023-06-25T06:43:17.686Z,2290.00
2023-06-25T06:44:17.687Z,2273.00
2023-06-25T06:45:17.737Z,2242.00
2023-06-25T06:46:17.747Z,2205.00
2023-06-25T06:47:17.759Z,2167.00
2023-06-25T06:48:17.822Z,2134.00
2023-06-25T06:49:17.844Z,2108.00
2023-06-25T06:50:17.904Z,2080.00
2023-06-25T06:51:17.947Z,2041.00
2023-06-25T06:52:17.994Z,2024.00
2023-06-25T06:53:17.979Z,1997.00
2023-06-25T06:54:17.995Z,2000.00
2023-06-25T06:55:18.015Z,1960.00
2023-06-25T06:56:18.029Z,1921.00
2023-06-25T06:57:18.060Z,1902.00
2023-06-25T06:58:18.094Z,1873.00
2023-06-25T06:59:18.091Z,1839.00
2023-06-25T07:00:18.105Z,1797.00
2023-06-25T07:01:18.203Z,1767.00
2023-06-25T07:02:18.158Z,1748.00
2023-06-25T07:03:18.163Z,1693.00
2023-06-25T07:04:18.180Z,1666.00
2023-06-25T07:05:18.238Z,1643.00
2023-06-25T07:06:18.237Z,1643.00
2023-06-25T07:07:18.302Z,1591.00
2023-06-25T07:08:18.277Z,1566.00
2023-06-25T07:09:18.274Z,1555.00
2023-06-25T07:10:18.311Z,1519.00
2023-06-25T07:11:18.326Z,1520.00
2023-06-25T07:12:18.369Z,1535.00
2023-06-25T07:13:18.365Z,1509.00
2023-06-25T07:14:18.384Z,1474.00
2023-06-25T07:15:18.401Z,1422.00
2023-06-25T07:16:18.434Z,1420.00
2023-06-25T07:17:18.424Z,1372.00
2023-06-25T07:18:18.461Z,1349.00
2023-06-25T07:19:18.466Z,1349.00
2023-06-25T07:20:18.508Z,1311.00
2023-06-25T07:21:18.507Z,1280.00
2023-06-25T07:22:18.495Z,1250.00
2023-06-25T07:23:18.517Z,1255.00
2023-06-25T07:24:18.615Z,1255.00
2023-06-25T07:25:18.555Z,1238.00
2023-06-25T07:26:18.556Z,1203.00
2023-06-25T07:27:18.680Z,1085.00
2023-06-25T07:28:18.732Z,1050.00
2023-06-25T07:29:18.803Z,1010.00
2023-06-25T07:30:18.874Z,946.00
2023-06-25T07:31:18.985Z,923.00
2023-06-25T07:32:19.028Z,933.00
2023-06-25T07:33:19.035Z,900.00
2023-06-25T07:34:19.038Z,907.00
2023-06-25T07:35:19.107Z,897.00
2023-06-25T07:36:19.065Z,818.00
2023-06-25T07:37:19.085Z,808.00
2023-06-25T07:38:19.098Z,806.00
2023-06-25T07:39:19.112Z,804.00
2023-06-25T07:40:19.117Z,749.00
2023-06-25T07:41:19.116Z,693.00
2023-06-25T07:42:19.186Z,716.00
2023-06-25T07:43:19.433Z,673.00
2023-06-25T07:44:38.155Z,650.00
2023-06-25T07:45:20.323Z,642.00
2023-06-25T07:46:19.348Z,643.00
2023-06-25T07:47:19.338Z,649.00
2023-06-25T07:48:19.358Z,633.00
2023-06-25T07:49:19.375Z,636.00
2023-06-25T07:50:19.367Z,618.00
2023-06-25T07:51:19.379Z,613.00
2023-06-25T07:52:19.408Z,603.00
2023-06-25T07:53:19.412Z,597.00
2023-06-25T07:54:19.398Z,587.00
2023-06-25T07:55:19.410Z,581.00
2023-06-25T07:56:19.423Z,572.00
2023-06-25T07:57:19.422Z,573.00
2023-06-25T07:58:19.458Z,561.00
2023-06-25T07:59:19.510Z,554.00
2023-06-25T08:00:20.688Z,556.00
2023-06-25T08:01:19.626Z,558.00
2023-06-25T08:02:19.788Z,553.00
2023-06-25T08:03:19.958Z,557.00
2023-06-25T08:04:19.940Z,540.00
2023-06-25T08:05:19.734Z,531.00
2023-06-25T08:06:19.844Z,532.00
2023-06-25T08:07:19.853Z,535.00
2023-06-25T08:08:19.801Z,544.00
2023-06-25T08:09:19.779Z,530.00
2023-06-25T08:10:19.788Z,510.00
2023-06-25T08:11:19.765Z,510.00
2023-06-25T08:12:19.777Z,506.00
2023-06-25T08:13:19.890Z,505.00
2023-06-25T08:14:20.384Z,498.00
2023-06-25T08:15:19.826Z,499.00
2023-06-25T08:16:19.860Z,503.00
2023-06-25T08:17:19.908Z,502.00
2023-06-25T08:18:19.958Z,506.00
2023-06-25T08:19:20.012Z,500.00
2023-06-25T08:20:20.051Z,499.00
2023-06-25T08:21:20.075Z,505.00
2023-06-25T08:22:20.106Z,501.00
2023-06-25T08:23:20.168Z,509.00
2023-06-25T08:24:20.188Z,512.00
2023-06-25T08:25:20.214Z,503.00
2023-06-25T08:26:20.264Z,500.00
2023-06-25T08:27:20.283Z,504.00
2023-06-25T08:28:20.327Z,500.00
2023-06-25T08:29:20.367Z,505.00
2023-06-25T08:30:20.393Z,513.00
2023-06-25T08:31:20.463Z,504.00
2023-06-25T08:32:20.508Z,502.00
2023-06-25T08:33:20.500Z,506.00
2023-06-25T08:34:20.501Z,501.00
2023-06-25T08:35:20.512Z,480.00
2023-06-25T08:36:20.518Z,480.00
2023-06-25T08:37:20.484Z,477.00
2023-06-25T08:38:20.507Z,467.00
2023-06-25T08:39:20.514Z,500.00
2023-06-25T08:40:20.514Z,507.00
2023-06-25T08:41:20.520Z,503.00
2023-06-25T08:42:20.543Z,500.00
2023-06-25T08:43:20.542Z,500.00
2023-06-25T08:44:20.534Z,516.00
2023-06-25T08:45:20.538Z,528.00
2023-06-25T08:46:20.629Z,533.00
2023-06-25T08:47:20.552Z,544.00
2023-06-25T08:48:20.538Z,550.00
2023-06-25T08:49:20.527Z,551.00
2023-06-25T08:50:20.522Z,556.00
2023-06-25T08:51:20.519Z,568.00
2023-06-25T08:52:20.508Z,593.00
2023-06-25T08:53:20.535Z,627.00
2023-06-25T08:54:20.507Z,656.00
2023-06-25T08:55:20.503Z,692.00
2023-06-25T08:56:20.504Z,743.00
2023-06-25T08:57:20.499Z,783.00
2023-06-25T08:58:20.509Z,840.00
2023-06-25T08:59:20.510Z,854.00
2023-06-25T09:00:20.477Z,885.00
2023-06-25T09:01:20.541Z,952.00
2023-06-25T09:02:20.510Z,985.00
2023-06-25T09:03:20.505Z,1004.00
2023-06-25T09:04:22.940Z,1021.00
2023-06-25T09:05:20.439Z,1052.00
2023-06-25T09:06:20.445Z,1047.00
2023-06-25T09:07:20.505Z,1031.00
2023-06-25T09:08:20.432Z,1026.00
2023-06-25T09:09:20.402Z,1061.00
2023-06-25T09:10:20.497Z,1142.00
2023-06-25T09:11:20.400Z,1169.00
2023-06-25T09:12:20.389Z,1230.00
2023-06-25T09:13:20.398Z,1271.00
2023-06-25T09:14:20.370Z,1287.00
2023-06-25T09:15:20.360Z,1298.00
2023-06-25T09:16:20.357Z,1378.00
2023-06-25T09:17:20.366Z,1403.00
2023-06-25T09:18:20.359Z,1417.00
2023-06-25T09:19:20.392Z,1419.00
2023-06-25T09:20:20.360Z,1425.00
2023-06-25T09:21:20.323Z,1442.00
2023-06-25T09:22:20.295Z,1422.00
2023-06-25T09:23:20.312Z,1442.00
2023-06-25T09:24:20.301Z,1482.00
2023-06-25T09:25:20.333Z,1544.00
2023-06-25T09:26:20.297Z,1633.00
2023-06-25T09:27:20.271Z,1643.00
2023-06-25T09:28:20.271Z,1668.00
2023-06-25T09:29:20.273Z,1741.00
2023-06-25T09:30:20.922Z,1794.00
2023-06-25T09:31:20.497Z,1814.00
2023-06-25T09:32:20.341Z,1818.00
2023-06-25T09:33:20.409Z,1830.00
2023-06-25T09:34:20.396Z,1831.00
2023-06-25T09:35:20.386Z,1837.00
2023-06-25T09:36:37.073Z,1852.00
2023-06-25T09:37:21.380Z,1833.00
2023-06-25T09:38:21.028Z,1842.00
2023-06-25T09:39:20.368Z,1862.00
2023-06-25T09:40:20.365Z,1882.00
2023-06-25T09:41:20.359Z,1891.00
2023-06-25T09:42:20.327Z,1875.00
2023-06-25T09:43:20.348Z,1909.00
2023-06-25T09:44:20.342Z,1878.00
2023-06-25T09:45:20.337Z,1880.00
2023-06-25T09:46:20.474Z,1929.00
2023-06-25T09:47:20.396Z,1923.00
2023-06-25T09:48:20.414Z,1905.00
2023-06-25T09:49:20.494Z,1934.00
2023-06-25T09:50:20.535Z,1920.00
2023-06-25T09:51:20.605Z,1885.00
2023-06-25T09:52:20.675Z,1875.00
2023-06-25T09:53:20.747Z,1878.00
2023-06-25T09:54:20.801Z,1869.00
2023-06-25T09:55:20.877Z,1863.00
2023-06-25T09:56:20.936Z,1880.00
2023-06-25T09:57:21.016Z,1841.00
2023-06-25T09:58:21.086Z,1821.00
2023-06-25T09:59:22.521Z,1826.00
2023-06-25T10:00:21.113Z,1754.00
2023-06-25T10:01:21.171Z,1740.00
2023-06-25T10:02:21.322Z,1738.00
2023-06-25T10:03:21.397Z,1731.00
2023-06-25T10:04:21.215Z,1758.00
2023-06-25T10:05:21.125Z,1761.00
2023-06-25T10:06:21.121Z,1702.00
2023-06-25T10:07:21.129Z,1712.00
2023-06-25T10:08:21.116Z,1690.00
2023-06-25T10:09:21.134Z,1697.00
2023-06-25T10:10:21.169Z,1684.00
2023-06-25T10:11:22.728Z,1642.00
2023-06-25T10:12:21.237Z,1638.00
2023-06-25T10:13:21.287Z,1644.00
2023-06-25T10:14:21.338Z,1645.00
2023-06-25T10:15:21.445Z,1661.00
2023-06-25T10:16:34.231Z,1622.00
2023-06-25T10:17:24.551Z,1644.00
2023-06-25T10:18:26.523Z,1645.00
2023-06-25T10:19:21.433Z,1643.00
2023-06-25T10:20:21.429Z,1639.00
2023-06-25T10:21:21.411Z,1564.00
2023-06-25T10:22:21.423Z,1639.00
2023-06-25T10:23:22.240Z,1628.00
2023-06-25T10:24:21.423Z,1657.00
2023-06-25T10:25:21.459Z,1640.00
2023-06-25T10:26:21.537Z,1557.00
2023-06-25T10:27:21.505Z,1559.00
2023-06-25T10:28:21.503Z,1552.00
2023-06-25T10:29:21.500Z,1565.00
2023-06-25T10:30:21.506Z,1589.00
2023-06-25T10:31:21.641Z,1577.00
2023-06-25T10:32:21.637Z,1475.00
2023-06-25T10:33:21.543Z,1418.00
2023-06-25T10:34:21.480Z,1435.00
2023-06-25T10:35:21.460Z,1435.00
2023-06-25T10:36:21.443Z,1435.00
2023-06-25T10:37:21.453Z,1357.00
2023-06-25T10:38:21.451Z,1334.00
2023-06-25T10:39:21.443Z,1360.00
2023-06-25T10:40:21.449Z,1326.00
2023-06-25T10:41:21.435Z,1379.00
2023-06-25T10:42:21.430Z,1414.00
2023-06-25T10:43:21.504Z,1363.00
2023-06-25T10:44:21.538Z,1393.00
2023-06-25T10:45:21.704Z,1412.00
2023-06-25T10:46:21.691Z,1409.00
2023-06-25T10:47:21.777Z,1342.00
2023-06-25T10:48:21.874Z,1256.00
2023-06-25T10:49:21.877Z,1326.00
2023-06-25T10:50:21.920Z,1344.00
2023-06-25T10:51:21.992Z,1185.00
2023-06-25T10:52:22.054Z,1152.00
2023-06-25T10:53:22.216Z,1170.00
2023-06-25T10:54:22.116Z,1173.00
2023-06-25T10:55:22.105Z,1181.00
2023-06-25T10:56:22.103Z,1189.00
2023-06-25T10:57:22.068Z,1217.00
2023-06-25T10:58:22.075Z,1234.00
2023-06-25T10:59:22.069Z,1235.00
2023-06-25T11:00:22.077Z,1249.00
2023-06-25T11:01:22.192Z,1275.00
2023-06-25T11:02:23.742Z,1226.00
2023-06-25T11:03:22.336Z,1261.00
2023-06-25T11:04:22.283Z,1231.00
2023-06-25T11:05:22.355Z,1199.00
2023-06-25T11:06:22.417Z,1199.00
2023-06-25T11:07:22.530Z,1212.00
2023-06-25T11:08:22.482Z,1187.00
2023-06-25T11:09:22.455Z,1195.00
2023-06-25T11:10:22.463Z,1202.00
2023-06-25T11:11:22.531Z,1154.00
2023-06-25T11:12:22.587Z,1115.00
2023-06-25T11:13:22.637Z,1131.00
2023-06-25T11:14:22.711Z,1089.00
2023-06-25T11:15:22.784Z,1148.00
2023-06-25T11:16:22.855Z,1104.00
2023-06-25T11:17:22.908Z,1132.00
2023-06-25T11:18:22.949Z,1144.00
2023-06-25T11:19:23.021Z,1143.00
2023-06-25T11:20:23.086Z,1138.00
2023-06-25T11:21:23.181Z,1040.00
2023-06-25T11:22:23.340Z,1026.00
2023-06-25T11:23:23.252Z,1028.00
2023-06-25T11:24:23.235Z,1040.00
2023-06-25T11:25:23.236Z,1064.00
2023-06-25T11:26:23.244Z,1082.00
2023-06-25T11:27:23.200Z,1108.00
2023-06-25T11:28:23.243Z,1159.00
2023-06-25T11:29:23.208Z,1111.00
2023-06-25T11:30:23.207Z,1095.00
2023-06-25T11:31:23.304Z,1010.00
2023-06-25T11:32:23.268Z,995.00
2023-06-25T11:33:23.313Z,1028.00
2023-06-25T11:34:23.373Z,991.00
2023-06-25T11:35:23.426Z,860.00
2023-06-25T11:36:23.470Z,912.00
2023-06-25T11:37:23.523Z,926.00
2023-06-25T11:38:23.599Z,900.00
2023-06-25T11:39:23.628Z,874.00
2023-06-25T11:40:23.674Z,824.00
2023-06-25T11:41:23.700Z,876.00
2023-06-25T11:42:23.782Z,860.00
2023-06-25T11:43:23.817Z,632.00
2023-06-25T11:44:23.865Z,494.00
2023-06-25T11:45:23.907Z,561.00
2023-06-25T11:46:23.981Z,578.00
2023-06-25T11:47:24.043Z,514.00
2023-06-25T11:48:24.042Z,554.00
2023-06-25T11:49:24.631Z,568.00
2023-06-25T11:50:24.146Z,569.00
2023-06-25T11:51:24.150Z,555.00
2023-06-25T11:52:24.195Z,585.00
2023-06-25T11:53:24.265Z,562.00
2023-06-25T11:54:24.304Z,471.00
2023-06-25T11:55:24.396Z,453.00
2023-06-25T11:56:24.437Z,466.00
2023-06-25T11:57:24.486Z,502.00
2023-06-25T11:58:24.545Z,550.00
2023-06-25T11:59:24.578Z,566.00
2023-06-25T12:00:24.653Z,557.00
2023-06-25T12:01:24.708Z,498.00
2023-06-25T12:02:28.605Z,536.00
2023-06-25T12:03:26.070Z,537.00
2023-06-25T12:04:24.797Z,542.00
2023-06-25T12:05:24.763Z,538.00
2023-06-25T12:06:24.761Z,539.00
2023-06-25T12:07:24.866Z,541.00
2023-06-25T12:08:24.766Z,554.00
2023-06-25T12:09:24.769Z,581.00